Time;durP1;ratioP1;P1;durP2;ratioP2;P2;SDS_P1;SDS_P2;PMS_P1;PMS_P2;Temp;Humidity;BMP_temperature;BMP_pressure;BME280_temperature;BME280_humidity;BME280_pressure;Samples;Min_cycle;Max_cycle;Signal;HPM_P1;HPM_P2
2022/11/09 00:02:05;;;;;;;10.20;2.97;;;;;;;11.71;100.00;100335.47;5225044;28;20038;-66
2022/11/09 00:04:36;;;;;;;7.85;2.03;;;;;;;11.69;100.00;100329.41;5244537;28;20033;-67
2022/11/09 00:07:08;;;;;;;5.75;2.30;;;;;;;11.78;100.00;100328.59;5241173;28;20671;-66
2022/11/09 00:09:39;;;;;;;7.30;2.00;;;;;;;11.70;100.00;100329.28;5239280;28;20461;-67
2022/11/09 00:12:10;;;;;;;5.50;1.92;;;;;;;11.72;100.00;100329.97;5244082;28;20395;-67
2022/11/09 00:14:42;;;;;;;6.65;1.92;;;;;;;11.68;100.00;100325.06;5243002;28;20051;-66
2022/11/09 00:17:13;;;;;;;4.50;1.95;;;;;;;11.72;100.00;100327.31;5246135;28;20016;-66
2022/11/09 00:19:44;;;;;;;5.20;1.70;;;;;;;11.71;100.00;100322.09;5246148;28;20386;-67
2022/11/09 00:22:15;;;;;;;6.43;1.75;;;;;;;11.71;100.00;100328.28;5244122;28;20070;-67
2022/11/09 00:24:47;;;;;;;5.75;1.80;;;;;;;11.72;100.00;100332.66;5250139;28;20033;-67
2022/11/09 00:27:18;;;;;;;6.00;1.92;;;;;;;11.69;100.00;100324.91;5250802;28;20382;-66
2022/11/09 00:29:49;;;;;;;5.22;1.77;;;;;;;11.78;100.00;100326.75;5249859;28;20017;-66
2022/11/09 00:32:20;;;;;;;9.55;1.98;;;;;;;11.84;100.00;100327.19;5251291;28;20040;-66
2022/11/09 00:34:52;;;;;;;5.55;1.95;;;;;;;11.80;100.00;100328.47;5244799;28;20676;-67
2022/11/09 00:37:23;;;;;;;6.60;1.95;;;;;;;11.77;100.00;100321.53;5243761;28;20044;-66
2022/11/09 00:39:55;;;;;;;8.77;2.17;;;;;;;11.78;100.00;100325.91;5250859;28;20076;-67
2022/11/09 00:42:26;;;;;;;8.52;2.00;;;;;;;11.79;100.00;100319.56;5247637;28;20468;-66
2022/11/09 00:44:57;;;;;;;5.20;1.98;;;;;;;11.78;100.00;100307.19;5250779;28;20059;-66
2022/11/09 00:47:28;;;;;;;4.75;1.95;;;;;;;11.78;100.00;100310.72;5248051;28;20043;-66
2022/11/09 00:50:00;;;;;;;4.80;1.75;;;;;;;11.85;100.00;100308.34;5252114;28;20053;-66
2022/11/09 00:52:31;;;;;;;5.97;1.60;;;;;;;11.84;100.00;100311.16;5245336;28;20376;-66
2022/11/09 00:55:03;;;;;;;4.97;1.90;;;;;;;11.85;100.00;100311.03;5249594;28;20048;-66
2022/11/09 00:57:34;;;;;;;6.45;1.80;;;;;;;11.86;100.00;100307.34;5244911;28;20021;-66
2022/11/09 01:00:06;;;;;;;8.15;1.92;;;;;;;11.93;100.00;100310.34;5248099;28;20032;-67
2022/11/09 01:02:37;;;;;;;6.30;1.80;;;;;;;11.83;100.00;100306.78;5240757;28;20028;-67
2022/11/09 01:05:08;;;;;;;7.13;1.70;;;;;;;11.78;100.00;100316.06;5244351;28;20021;-66
2022/11/09 01:07:40;;;;;;;5.75;1.73;;;;;;;11.77;100.00;100313.53;5243741;28;20032;-66
2022/11/09 01:10:11;;;;;;;11.13;2.85;;;;;;;11.79;100.00;100322.25;5241152;28;20025;-66
2022/11/09 01:12:42;;;;;;;5.88;2.40;;;;;;;11.74;100.00;100316.50;5246957;28;20064;-66
2022/11/09 01:15:13;;;;;;;6.60;1.95;;;;;;;11.82;100.00;100321.13;5241931;28;20047;-66
2022/11/09 01:17:46;;;;;;;6.40;2.05;;;;;;;11.73;100.00;100326.31;5247666;28;20029;-66
2022/11/09 01:20:18;;;;;;;5.20;2.00;;;;;;;11.71;100.00;100336.28;5253075;28;20387;-66
2022/11/09 01:22:49;;;;;;;8.73;2.10;;;;;;;11.71;100.00;100343.47;5254453;28;20029;-66
2022/11/09 01:25:20;;;;;;;5.32;1.95;;;;;;;11.70;100.00;100341.81;5255933;28;20131;-66
2022/11/09 01:27:51;;;;;;;7.50;2.70;;;;;;;11.68;100.00;100341.94;5252726;28;20025;-66
2022/11/09 01:30:23;;;;;;;7.38;1.95;;;;;;;11.65;100.00;100338.69;5254952;28;20029;-66
2022/11/09 01:32:54;;;;;;;6.95;2.53;;;;;;;11.69;100.00;100343.59;5255317;28;20036;-66
2022/11/09 01:35:25;;;;;;;7.05;2.08;;;;;;;11.65;100.00;100350.22;5251433;28;20079;-66
2022/11/09 01:37:56;;;;;;;7.82;1.90;;;;;;;11.66;100.00;100343.03;5251619;28;20037;-66
2022/11/09 01:40:29;;;;;;;6.57;2.17;;;;;;;11.66;100.00;100341.22;5248864;28;20088;-66
2022/11/09 01:43:18;;;;;;;4.38;1.67;;;;;;;11.70;100.00;100347.97;5253457;28;20040;-66
2022/11/09 01:46:02;;;;;;;6.00;1.83;;;;;;;11.64;100.00;100353.00;5252616;28;20162;-67
2022/11/09 01:48:42;;;;;;;7.20;1.95;;;;;;;11.70;100.00;100344.47;5246599;28;20028;-66
2022/11/09 01:51:22;;;;;;;7.15;2.10;;;;;;;11.68;100.00;100344.59;5249362;28;20032;-66
2022/11/09 01:53:59;;;;;;;8.10;1.92;;;;;;;11.59;100.00;100340.06;5249725;28;20052;-66
2022/11/09 01:56:31;;;;;;;8.07;1.85;;;;;;;11.61;100.00;100330.09;5255708;28;20028;-66
2022/11/09 01:59:09;;;;;;;8.55;1.90;;;;;;;11.55;100.00;100334.16;5242478;28;20063;-66
2022/11/09 02:01:41;;;;;;;6.10;1.60;;;;;;;11.56;100.00;100341.19;5243785;28;20063;-66
2022/11/09 02:04:21;;;;;;;4.97;1.48;;;;;;;11.61;100.00;100347.97;5247872;28;20028;-67
2022/11/09 02:06:56;;;;;;;6.72;1.70;;;;;;;11.55;100.00;100346.69;5248425;28;20055;-67
2022/11/09 02:09:42;;;;;;;6.65;1.60;;;;;;;11.53;100.00;100336.13;5245586;28;20044;-67
2022/11/09 02:12:16;;;;;;;5.00;2.08;;;;;;;11.55;100.00;100344.84;5245550;28;20071;-67
2022/11/09 02:14:50;;;;;;;6.82;1.95;;;;;;;11.51;100.00;100347.94;5248816;28;20033;-67
2022/11/09 02:17:22;;;;;;;8.65;2.20;;;;;;;11.52;100.00;100342.44;5250491;28;20056;-66
2022/11/09 02:19:56;;;;;;;8.07;1.52;;;;;;;11.51;100.00;100342.59;5249000;28;20032;-66
2022/11/09 02:22:27;;;;;;;7.47;1.85;;;;;;;11.59;100.00;100345.41;5250807;28;20052;-67
2022/11/09 02:24:59;;;;;;;5.78;1.80;;;;;;;11.51;100.00;100346.09;5250956;28;20028;-67
2022/11/09 02:27:30;;;;;;;8.10;1.70;;;;;;;11.61;100.00;100353.31;5243803;28;20064;-66
2022/11/09 02:30:04;;;;;;;8.57;1.83;;;;;;;11.65;100.00;100360.06;5251202;28;20049;-66
2022/11/09 02:32:35;;;;;;;7.72;1.65;;;;;;;11.59;100.00;100366.78;5250493;28;20029;-66
2022/11/09 02:35:06;;;;;;;8.50;1.98;;;;;;;11.57;100.00;100358.06;5248830;28;20413;-66
2022/11/09 02:37:46;;;;;;;6.75;1.83;;;;;;;11.58;100.00;100381.13;5249546;28;20087;-67
2022/11/09 02:40:39;;;;;;;8.23;1.70;;;;;;;11.63;100.00;100368.22;5248974;28;20028;-66
2022/11/09 02:43:13;;;;;;;5.88;1.67;;;;;;;11.58;100.00;100341.91;5249913;28;20035;-66
2022/11/09 02:45:45;;;;;;;6.32;1.65;;;;;;;11.64;100.00;100339.66;5249653;28;20065;-66
2022/11/09 02:48:16;;;;;;;8.80;1.55;;;;;;;11.63;100.00;100341.50;5254172;28;20124;-67
2022/11/09 02:50:47;;;;;;;6.75;1.48;;;;;;;11.62;100.00;100349.63;5253814;28;20112;-66
2022/11/09 02:53:18;;;;;;;9.40;2.50;;;;;;;11.67;100.00;100337.56;5247151;28;20041;-66
2022/11/09 02:55:49;;;;;;;7.28;1.83;;;;;;;11.72;100.00;100303.25;5251788;28;20083;-66
2022/11/09 02:58:21;;;;;;;8.95;1.75;;;;;;;11.80;100.00;100307.06;5252561;28;20059;-66
2022/11/09 03:00:52;;;;;;;7.57;1.58;;;;;;;11.81;100.00;100325.63;5242393;28;20095;-66
2022/11/09 03:03:23;;;;;;;10.10;1.73;;;;;;;11.83;100.00;100323.69;5250314;28;20033;-67
2022/11/09 03:05:55;;;;;;;7.05;1.75;;;;;;;11.89;100.00;100327.59;5243670;28;20037;-67
2022/11/09 03:08:26;;;;;;;7.90;1.95;;;;;;;11.89;100.00;100335.63;5248598;28;20047;-66
2022/11/09 03:11:00;;;;;;;8.07;1.92;;;;;;;11.87;100.00;100357.16;5244789;28;20028;-67
2022/11/09 03:13:33;;;;;;;10.32;2.33;;;;;;;11.90;100.00;100354.22;5243616;28;20040;-66
2022/11/09 03:16:06;;;;;;;10.00;2.00;;;;;;;11.89;100.00;100367.69;5244037;28;20110;-67
2022/11/09 03:18:37;;;;;;;7.63;1.77;;;;;;;11.89;100.00;100363.25;5239650;28;20421;-66
2022/11/09 03:21:08;;;;;;;7.78;1.95;;;;;;;11.86;100.00;100379.53;5240494;28;20032;-67
2022/11/09 03:23:39;;;;;;;7.03;1.80;;;;;;;11.86;100.00;100381.34;5247588;28;20028;-67
2022/11/09 03:26:11;;;;;;;8.07;2.05;;;;;;;11.84;100.00;100375.31;5248343;28;20029;-67
2022/11/09 03:28:42;;;;;;;9.90;1.90;;;;;;;11.83;100.00;100384.28;5250717;28;20052;-67
2022/11/09 03:31:14;;;;;;;9.80;1.90;;;;;;;11.79;100.00;100375.69;5246468;28;20037;-66
2022/11/09 03:33:45;;;;;;;11.65;2.40;;;;;;;11.81;100.00;100371.06;5252176;28;20025;-66
2022/11/09 03:36:17;;;;;;;10.57;1.92;;;;;;;11.81;100.00;100380.91;5238395;28;20434;-66
2022/11/09 03:38:48;;;;;;;11.13;2.50;;;;;;;11.87;100.00;100375.00;5239532;28;20142;-66
2022/11/09 03:41:19;;;;;;;11.50;2.28;;;;;;;11.80;100.00;100385.41;5241865;28;20025;-66
2022/11/09 03:43:50;;;;;;;7.00;1.70;;;;;;;11.83;100.00;100387.84;5248987;28;20373;-66
2022/11/09 03:46:22;;;;;;;8.55;1.90;;;;;;;11.81;100.00;100402.28;5240324;28;20029;-66
2022/11/09 03:48:53;;;;;;;8.82;1.75;;;;;;;11.82;100.00;100398.66;5245916;28;20119;-67
2022/11/09 03:51:24;;;;;;;11.65;1.58;;;;;;;11.76;100.00;100411.56;5246058;28;20025;-66
2022/11/09 03:53:55;;;;;;;10.80;2.75;;;;;;;11.79;100.00;100410.44;5235483;28;20136;-66
2022/11/09 03:56:27;;;;;;;7.47;1.65;;;;;;;11.81;100.00;100413.81;5244721;28;20083;-66
2022/11/09 03:58:58;;;;;;;11.98;2.53;;;;;;;11.84;100.00;100421.59;5243825;28;20112;-67
2022/11/09 04:01:29;;;;;;;8.82;2.05;;;;;;;11.83;100.00;100419.91;5244661;28;20481;-66
2022/11/09 04:04:00;;;;;;;7.93;2.15;;;;;;;11.80;100.00;100414.81;5250735;28;20372;-67
2022/11/09 04:06:32;;;;;;;8.15;1.60;;;;;;;11.69;100.00;100425.63;5246593;28;20189;-67
2022/11/09 04:09:03;;;;;;;8.50;1.60;;;;;;;11.65;100.00;100430.38;5249886;28;20021;-67
2022/11/09 04:11:34;;;;;;;7.53;1.63;;;;;;;11.63;100.00;100432.34;5248305;28;20052;-67
2022/11/09 04:14:06;;;;;;;7.70;1.88;;;;;;;11.63;100.00;100436.84;5245917;28;20036;-67
2022/11/09 04:16:38;;;;;;;8.57;1.90;;;;;;;11.57;100.00;100433.72;5245578;28;20031;-67
2022/11/09 04:19:09;;;;;;;11.90;2.22;;;;;;;11.52;100.00;100443.94;5247685;28;20044;-67
2022/11/09 04:21:40;;;;;;;8.55;1.50;;;;;;;11.48;100.00;100447.03;5247213;28;20443;-67
2022/11/09 04:24:11;;;;;;;6.93;1.50;;;;;;;11.49;100.00;100443.41;5246923;28;20339;-69
2022/11/09 04:26:43;;;;;;;9.65;2.15;;;;;;;11.44;100.00;100448.28;5245076;28;20467;-67
2022/11/09 04:29:14;;;;;;;8.88;1.77;;;;;;;11.36;100.00;100456.97;5245108;28;20074;-66
2022/11/09 04:31:47;;;;;;;8.80;2.53;;;;;;;11.38;100.00;100466.53;5244091;28;20428;-67
2022/11/09 04:34:19;;;;;;;7.53;1.75;;;;;;;11.37;100.00;100464.84;5246866;28;20170;-67
2022/11/09 04:36:50;;;;;;;7.72;1.75;;;;;;;11.36;100.00;100464.97;5247029;28;20029;-66
2022/11/09 04:39:21;;;;;;;8.02;1.70;;;;;;;11.30;100.00;100465.50;5244716;28;20561;-66
2022/11/09 04:41:53;;;;;;;7.85;1.95;;;;;;;11.36;100.00;100462.31;5247543;28;20033;-66
2022/11/09 04:44:24;;;;;;;9.57;1.90;;;;;;;11.40;100.00;100463.72;5243854;28;20040;-66
2022/11/09 04:46:55;;;;;;;9.07;2.22;;;;;;;11.48;100.00;100466.56;5247321;28;20033;-67
2022/11/09 04:49:26;;;;;;;7.18;2.33;;;;;;;11.37;100.00;100463.97;5250679;28;20426;-66
2022/11/09 04:51:58;;;;;;;6.65;1.70;;;;;;;11.38;100.00;100468.34;5247697;28;20486;-67
2022/11/09 04:54:29;;;;;;;8.60;2.20;;;;;;;11.33;100.00;100466.09;5242555;28;20774;-67
2022/11/09 04:57:00;;;;;;;6.50;1.90;;;;;;;11.36;100.00;100473.00;5248792;28;20489;-67
2022/11/09 04:59:31;;;;;;;7.85;1.63;;;;;;;11.33;100.00;100467.91;5248083;28;20475;-67
2022/11/09 05:02:03;;;;;;;7.28;2.03;;;;;;;11.29;100.00;100469.97;5239647;28;20024;-67
2022/11/09 05:04:34;;;;;;;6.55;1.83;;;;;;;11.31;100.00;100461.84;5246259;28;20028;-67
2022/11/09 05:07:05;;;;;;;9.35;1.90;;;;;;;11.28;100.00;100459.47;5244365;28;21290;-66
2022/11/09 05:09:36;;;;;;;8.98;2.00;;;;;;;11.21;100.00;100459.13;5248247;28;20447;-66
2022/11/09 05:12:09;;;;;;;8.68;2.00;;;;;;;11.20;100.00;100465.44;5239302;28;20460;-66
2022/11/09 05:14:41;;;;;;;7.95;2.15;;;;;;;11.16;100.00;100456.84;5247227;28;20033;-67
2022/11/09 05:17:12;;;;;;;10.30;2.13;;;;;;;11.18;100.00;100454.91;5244859;28;20668;-67
2022/11/09 05:19:43;;;;;;;7.43;1.67;;;;;;;11.08;100.00;100456.63;5244065;28;20486;-67
2022/11/09 05:25:04;;;;;;;8.75;1.70;;;;;;;11.05;100.00;100446.25;5238047;28;20053;-66
2022/11/09 05:27:37;;;;;;;8.57;2.17;;;;;;;11.01;100.00;100447.47;5242861;28;20060;-66
2022/11/09 05:30:09;;;;;;;9.35;2.30;;;;;;;10.99;100.00;100450.28;5239857;28;20477;-66
2022/11/09 05:32:40;;;;;;;10.48;2.10;;;;;;;11.02;100.00;100454.50;5239903;28;20028;-66
2022/11/09 05:35:12;;;;;;;9.73;1.92;;;;;;;10.98;100.00;100447.72;5244308;28;20055;-67
2022/11/09 05:37:47;;;;;;;7.25;1.88;;;;;;;10.95;100.00;100458.69;5237055;28;20154;-67
2022/11/09 05:40:19;;;;;;;7.10;2.08;;;;;;;10.91;100.00;100457.22;5246775;28;20033;-66
2022/11/09 05:42:50;;;;;;;9.70;1.92;;;;;;;10.93;100.00;100458.81;5242127;28;20024;-67
2022/11/09 05:45:24;;;;;;;8.40;2.08;;;;;;;10.86;100.00;100454.13;5242928;28;20036;-67
2022/11/09 05:47:55;;;;;;;8.23;2.15;;;;;;;10.83;100.00;100457.03;5241849;28;20849;-67
2022/11/09 05:50:26;;;;;;;9.05;1.98;;;;;;;10.82;100.00;100455.34;5246078;28;20043;-67
2022/11/09 05:52:59;;;;;;;8.55;2.00;;;;;;;10.77;100.00;100450.38;5244064;28;20029;-66
2022/11/09 05:55:30;;;;;;;11.63;2.30;;;;;;;10.72;100.00;100453.44;5245165;28;20053;-66
2022/11/09 05:58:02;;;;;;;12.05;2.80;;;;;;;10.76;100.00;100457.53;5244010;28;20564;-67
2022/11/09 06:00:33;;;;;;;12.07;2.28;;;;;;;10.70;100.00;100450.06;5237991;28;20522;-67
2022/11/09 06:03:07;;;;;;;11.98;2.38;;;;;;;10.69;100.00;100450.19;5247001;28;20037;-66
2022/11/09 06:05:40;;;;;;;11.63;2.58;;;;;;;10.67;100.00;100458.31;5252208;28;20072;-66
2022/11/09 06:08:13;;;;;;;9.90;1.80;;;;;;;10.63;100.00;100454.22;5248039;28;20430;-66
2022/11/09 06:10:44;;;;;;;7.82;1.95;;;;;;;10.68;100.00;100457.34;5245863;28;20086;-66
2022/11/09 06:13:15;;;;;;;10.10;1.98;;;;;;;10.61;100.00;100455.31;5244883;28;20037;-66
2022/11/09 06:15:52;;;;;;;9.45;2.50;;;;;;;10.61;100.00;100458.81;5247020;28;20121;-67
2022/11/09 06:18:25;;;;;;;9.38;2.20;;;;;;;10.66;100.00;100456.63;5245398;28;21345;-66
2022/11/09 06:20:59;;;;;;;13.35;2.22;;;;;;;10.60;100.00;100470.44;5252790;28;20033;-67
2022/11/09 06:23:31;;;;;;;6.85;2.00;;;;;;;10.55;100.00;100472.69;5242596;28;20025;-67
2022/11/09 06:26:08;;;;;;;9.77;2.00;;;;;;;10.52;100.00;100472.91;5247642;28;20056;-67
2022/11/09 06:28:40;;;;;;;11.40;2.30;;;;;;;10.53;100.00;100471.97;5239443;28;20745;-67
2022/11/09 06:31:14;;;;;;;9.93;2.60;;;;;;;10.63;100.00;100475.53;5248630;28;20029;-67
2022/11/09 06:33:45;;;;;;;10.40;2.35;;;;;;;10.54;100.00;100477.13;5248798;28;20386;-67
2022/11/09 06:36:17;;;;;;;8.00;2.53;;;;;;;10.61;100.00;100485.50;5252233;28;20029;-67
2022/11/09 06:38:51;;;;;;;11.02;2.20;;;;;;;10.58;100.00;100477.75;5247568;28;20535;-67
2022/11/09 06:41:22;;;;;;;9.32;2.33;;;;;;;10.61;100.00;100485.50;5254146;28;20060;-67
2022/11/09 06:43:54;;;;;;;8.50;1.80;;;;;;;10.58;100.00;100489.28;5245020;28;20157;-67
2022/11/09 06:46:25;;;;;;;11.20;2.28;;;;;;;10.62;100.00;100487.19;5249052;28;20430;-67
2022/11/09 06:48:56;;;;;;;10.50;2.10;;;;;;;10.57;100.00;100490.25;5248345;28;20446;-67
2022/11/09 06:51:28;;;;;;;15.00;2.72;;;;;;;10.63;100.00;100486.22;5254034;28;20033;-67
2022/11/09 06:54:00;;;;;;;9.50;2.30;;;;;;;10.63;100.00;100490.72;5245432;28;20205;-68
2022/11/09 06:56:31;;;;;;;9.00;2.13;;;;;;;10.64;100.00;100490.56;5246319;28;20047;-67
2022/11/09 06:59:02;;;;;;;12.45;2.30;;;;;;;10.61;100.00;100496.19;5250086;28;20037;-67
2022/11/09 07:01:33;;;;;;;8.10;2.10;;;;;;;10.61;100.00;100493.50;5243070;28;20040;-67
2022/11/09 07:04:05;;;;;;;10.70;2.45;;;;;;;10.55;100.00;100494.84;5248006;28;20029;-67
2022/11/09 07:06:42;;;;;;;8.57;2.13;;;;;;;10.61;100.00;100492.66;5253068;28;20060;-67
2022/11/09 07:09:13;;;;;;;10.70;2.80;;;;;;;10.65;100.00;100499.44;5251222;28;20041;-66
2022/11/09 07:11:47;;;;;;;9.85;2.47;;;;;;;10.56;100.00;100512.53;5252537;28;20036;-67
2022/11/09 07:14:18;;;;;;;;;;;;;;;10.58;100.00;100517.75;5253091;28;20107;-67
2022/11/09 07:16:50;;;;;;;9.95;2.20;;;;;;;10.51;100.00;100511.25;5250123;28;19917;-67
2022/11/09 07:19:21;;;;;;;10.40;2.30;;;;;;;10.52;100.00;100512.94;5244537;28;20491;-67
2022/11/09 07:21:52;;;;;;;9.60;1.90;;;;;;;10.55;100.00;100516.19;5241659;28;20053;-67
2022/11/09 07:24:23;;;;;;;13.73;2.83;;;;;;;10.53;100.00;100523.47;5250243;28;20044;-67
2022/11/09 07:26:55;;;;;;;8.93;2.13;;;;;;;10.62;100.00;100523.69;5248659;28;20036;-67
2022/11/09 07:29:26;;;;;;;12.00;2.72;;;;;;;10.54;100.00;100529.66;5245456;28;20037;-67
2022/11/09 07:31:57;;;;;;;13.32;2.90;;;;;;;10.58;100.00;100531.09;5245094;28;20175;-67
2022/11/09 07:34:28;;;;;;;8.55;2.08;;;;;;;10.60;100.00;100531.81;5248873;28;20067;-67
2022/11/09 07:37:00;;;;;;;11.95;1.95;;;;;;;10.61;100.00;100528.19;5245128;28;20033;-67
2022/11/09 07:39:31;;;;;;;8.45;2.20;;;;;;;10.60;100.00;100529.16;5238118;28;20075;-67
2022/11/09 07:42:02;;;;;;;7.95;2.70;;;;;;;10.58;100.00;100526.63;5250844;28;20028;-67
2022/11/09 07:44:34;;;;;;;10.85;2.60;;;;;;;10.59;100.00;100525.63;5245864;28;20036;-67
2022/11/09 07:47:05;;;;;;;10.25;2.25;;;;;;;10.59;100.00;100528.31;5241545;28;20035;-67
2022/11/09 07:49:36;;;;;;;9.73;2.25;;;;;;;10.71;100.00;100526.44;5245846;28;20032;-68
2022/11/09 07:52:08;;;;;;;7.90;1.70;;;;;;;10.68;100.00;100539.19;5246747;28;20071;-66
2022/11/09 07:54:39;;;;;;;10.35;2.38;;;;;;;10.73;100.00;100519.16;5247030;28;20052;-67
2022/11/09 07:57:10;;;;;;;7.22;2.03;;;;;;;10.73;100.00;100529.84;5249412;28;20059;-67
2022/11/09 07:59:42;;;;;;;7.78;1.83;;;;;;;10.75;100.00;100533.22;5238244;28;20041;-67
2022/11/09 08:02:13;;;;;;;11.00;2.28;;;;;;;10.77;100.00;100546.44;5246367;28;20495;-68
2022/11/09 08:04:44;;;;;;;10.20;2.40;;;;;;;10.82;100.00;100530.91;5245158;28;20111;-67
2022/11/09 08:07:15;;;;;;;11.80;2.55;;;;;;;10.86;100.00;100540.34;5247752;28;20089;-65
2022/11/09 08:09:47;;;;;;;11.57;2.35;;;;;;;10.87;100.00;100538.53;5249350;28;20036;-65
2022/11/09 08:12:18;;;;;;;7.32;1.83;;;;;;;10.86;100.00;100550.19;5254601;28;20482;-65
2022/11/09 08:14:49;;;;;;;10.68;2.63;;;;;;;10.86;100.00;100545.69;5250782;28;20487;-68
2022/11/09 08:17:20;;;;;;;9.85;2.00;;;;;;;10.91;100.00;100547.97;5246015;28;20395;-67
2022/11/09 08:19:51;;;;;;;11.57;3.10;;;;;;;10.94;100.00;100553.06;5254769;28;20487;-67
2022/11/09 08:22:23;;;;;;;9.60;2.33;;;;;;;10.90;100.00;100557.81;5250826;28;20068;-67
2022/11/09 08:24:54;;;;;;;8.02;1.92;;;;;;;10.89;100.00;100558.81;5253199;28;20037;-67
2022/11/09 08:27:29;;;;;;;8.07;1.77;;;;;;;10.91;100.00;100564.84;5246621;28;20116;-68
2022/11/09 08:30:00;;;;;;;9.73;2.88;;;;;;;11.06;100.00;100556.53;5249526;28;20142;-66
2022/11/09 08:32:32;;;;;;;10.30;2.45;;;;;;;10.98;100.00;100567.84;5253151;28;20526;-65
2022/11/09 08:35:04;;;;;;;12.10;2.22;;;;;;;11.01;100.00;100569.41;5232365;28;20037;-65
2022/11/09 08:37:36;;;;;;;9.70;2.95;;;;;;;11.08;100.00;100568.78;5253242;28;20079;-65
2022/11/09 08:40:08;;;;;;;10.52;2.30;;;;;;;11.03;100.00;100572.81;5253709;28;20029;-65
2022/11/09 08:42:39;;;;;;;11.48;2.30;;;;;;;11.04;100.00;100577.19;5251119;28;20023;-65
2022/11/09 08:45:12;;;;;;;11.48;3.13;;;;;;;11.10;100.00;100580.19;5253127;28;20475;-65
2022/11/09 08:47:44;;;;;;;8.25;1.85;;;;;;;11.13;100.00;100576.41;5249820;28;20036;-65
2022/11/09 08:50:15;;;;;;;7.82;1.90;;;;;;;11.19;100.00;100575.91;5248358;28;20094;-65
2022/11/09 08:52:46;;;;;;;8.43;2.15;;;;;;;11.25;100.00;100571.88;5250087;28;20028;-65
2022/11/09 08:55:18;;;;;;;11.57;2.38;;;;;;;11.27;100.00;100580.59;5253532;28;20507;-65
2022/11/09 08:57:55;;;;;;;8.00;2.00;;;;;;;11.31;100.00;100571.34;5250520;28;20047;-65
2022/11/09 09:00:27;;;;;;;9.18;1.98;;;;;;;11.36;100.00;100582.50;5251592;28;20551;-66
2022/11/09 09:03:02;;;;;;;9.00;1.83;;;;;;;11.37;100.00;100579.72;5251498;28;20052;-66
2022/11/09 09:05:34;;;;;;;9.40;1.90;;;;;;;11.36;100.00;100586.00;5246933;28;20441;-66
2022/11/09 09:08:06;;;;;;;10.60;2.47;;;;;;;11.40;100.00;100578.59;5242038;28;20096;-65
2022/11/09 09:10:39;;;;;;;8.98;2.05;;;;;;;11.44;100.00;100579.19;5252615;28;20032;-65
2022/11/09 09:13:10;;;;;;;6.60;1.90;;;;;;;11.45;100.00;100589.75;5249118;28;20071;-65
2022/11/09 09:15:41;;;;;;;10.32;2.30;;;;;;;11.54;100.00;100578.28;5251507;28;20116;-65
2022/11/09 09:18:13;;;;;;;8.93;2.03;;;;;;;11.55;100.00;100585.31;5250680;28;20025;-65
2022/11/09 09:20:44;;;;;;;8.55;1.80;;;;;;;11.66;100.00;100586.22;5250489;28;20116;-65
2022/11/09 09:23:16;;;;;;;11.98;2.05;;;;;;;11.63;100.00;100575.81;5247581;28;20360;-65
2022/11/09 09:25:47;;;;;;;10.02;1.92;;;;;;;11.67;100.00;100596.78;5253441;28;20534;-66
2022/11/09 09:28:18;;;;;;;8.30;2.10;;;;;;;11.74;100.00;100594.44;5242673;28;20029;-65
2022/11/09 09:30:49;;;;;;;7.45;1.80;;;;;;;11.73;100.00;100587.38;5245400;28;20040;-66
2022/11/09 09:33:21;;;;;;;8.85;2.25;;;;;;;11.78;100.00;100596.72;5247561;28;20475;-65
2022/11/09 09:35:55;;;;;;;8.43;2.00;;;;;;;11.78;100.00;100599.38;5252514;28;20499;-67
2022/11/09 09:38:28;;;;;;;9.82;2.10;;;;;;;11.79;100.00;100594.88;5250882;28;20025;-68
2022/11/09 09:41:01;;;;;;;10.30;2.15;;;;;;;11.84;100.00;100603.34;5254262;28;20037;-68
2022/11/09 09:43:45;;;;;;;10.30;1.90;;;;;;;11.86;100.00;100605.91;5248798;28;20037;-67
2022/11/09 09:46:33;;;;;;;9.05;1.95;;;;;;;11.86;100.00;100606.75;5241224;28;20035;-67
2022/11/09 09:49:11;;;;;;;9.82;1.63;;;;;;;11.88;100.00;100606.63;5243321;28;20120;-68
2022/11/09 09:51:55;;;;;;;9.82;2.10;;;;;;;11.94;100.00;100616.81;5250206;28;20037;-68
2022/11/09 09:54:35;;;;;;;9.80;2.55;;;;;;;12.01;100.00;100617.16;5243922;28;20434;-67
2022/11/09 09:57:17;;;;;;;11.68;2.00;;;;;;;12.08;100.00;100627.19;5249571;28;20029;-68
2022/11/09 09:59:51;;;;;;;13.85;2.38;;;;;;;12.11;100.00;100628.72;5245535;28;20037;-65
2022/11/09 10:02:22;;;;;;;;;;;;;;;12.18;100.00;100637.06;5247584;28;20632;-66
2022/11/09 10:04:56;;;;;;;9.52;1.98;;;;;;;12.24;100.00;100632.03;5251982;28;19928;-66
2022/11/09 10:07:58;;;;;;;13.20;2.10;;;;;;;12.32;100.00;100631.38;5250837;28;20025;-65
2022/11/09 10:10:43;;;;;;;7.20;1.65;;;;;;;12.36;100.00;100641.66;5253591;28;20450;-66
2022/11/09 10:13:42;;;;;;;11.90;2.05;;;;;;;12.43;100.00;100633.97;5256573;28;20072;-66
2022/11/09 10:16:41;;;;;;;6.32;1.67;;;;;;;12.41;100.00;100632.41;5256390;28;20040;-66
2022/11/09 10:19:18;;;;;;;8.45;1.60;;;;;;;12.40;100.00;100644.06;5253057;28;20274;-67
2022/11/09 10:22:02;;;;;;;7.28;1.67;;;;;;;12.42;100.00;100639.44;5250168;28;20119;-66
2022/11/09 10:24:44;;;;;;;7.70;1.67;;;;;;;12.40;100.00;100644.06;5255369;28;20059;-65
2022/11/09 10:27:39;;;;;;;9.32;3.00;;;;;;;12.44;100.00;100640.16;5251464;28;20086;-66
2022/11/09 10:30:14;;;;;;;8.25;1.70;;;;;;;12.45;100.00;100647.22;5251400;28;20033;-66
2022/11/09 10:32:55;;;;;;;6.82;1.65;;;;;;;12.50;100.00;100640.47;5255805;28;20304;-66
2022/11/09 10:35:52;;;;;;;10.05;1.55;;;;;;;12.54;100.00;100643.69;5246406;28;20035;-65
2022/11/09 10:38:30;;;;;;;12.50;1.75;;;;;;;12.58;100.00;100639.78;5246423;28;20103;-66
2022/11/09 10:41:10;;;;;;;6.28;1.75;;;;;;;12.60;100.00;100656.56;5246577;28;20394;-66
2022/11/09 10:43:41;;;;;;;8.57;1.58;;;;;;;12.69;100.00;100650.38;5247894;28;20028;-66
2022/11/09 10:46:13;;;;;;;9.98;1.83;;;;;;;12.70;100.00;100654.75;5246414;28;20028;-66
2022/11/09 10:48:44;;;;;;;9.38;1.63;;;;;;;12.75;100.00;100651.66;5236371;28;20025;-65
2022/11/09 10:51:37;;;;;;;8.57;1.75;;;;;;;12.79;100.00;100660.28;5243789;28;20027;-65
2022/11/09 10:54:23;;;;;;;5.82;1.60;;;;;;;12.82;100.00;100668.03;5248718;28;20017;-66
2022/11/09 10:57:08;;;;;;;9.27;2.30;;;;;;;12.88;100.00;100665.66;5247071;28;20414;-66
2022/11/09 10:59:57;;;;;;;11.07;1.77;;;;;;;12.89;100.00;100666.53;5241073;28;20406;-66
2022/11/09 11:02:46;;;;;;;8.90;1.85;;;;;;;12.92;100.00;100668.91;5246253;28;20261;-65
2022/11/09 11:05:17;;;;;;;6.43;1.88;;;;;;;12.97;100.00;100672.03;5245466;28;20491;-66
2022/11/09 11:07:48;;;;;;;10.38;1.60;;;;;;;12.95;100.00;100671.31;5243566;28;20029;-66
2022/11/09 11:10:20;;;;;;;10.57;1.83;;;;;;;12.97;100.00;100671.19;5242812;28;20032;-65
2022/11/09 11:12:56;;;;;;;6.60;1.70;;;;;;;13.00;100.00;100668.22;5249255;28;20087;-66
2022/11/09 11:15:27;;;;;;;9.95;1.85;;;;;;;13.01;100.00;100673.44;5245654;28;20037;-65
2022/11/09 11:18:04;;;;;;;8.88;2.03;;;;;;;13.00;100.00;100674.44;5249279;28;20028;-66
2022/11/09 11:20:36;;;;;;;7.25;1.45;;;;;;;12.98;100.00;100675.53;5256808;28;20382;-66
2022/11/09 11:23:12;;;;;;;8.70;1.50;;;;;;;12.96;100.00;100681.03;5250039;28;20048;-66
2022/11/09 11:25:52;;;;;;;9.02;1.90;;;;;;;13.03;100.00;100684.88;5253974;28;20040;-66
2022/11/09 11:28:38;;;;;;;8.50;1.80;;;;;;;13.03;100.00;100684.03;5249654;28;20029;-66
2022/11/09 11:31:18;;;;;;;10.25;1.88;;;;;;;13.06;100.00;100676.56;5252049;28;20066;-66
2022/11/09 11:33:49;;;;;;;8.38;2.53;;;;;;;13.08;100.00;100682.63;5256578;28;20033;-66
2022/11/09 11:36:48;;;;;;;6.80;1.52;;;;;;;13.14;100.00;100684.75;5251280;28;20029;-66
2022/11/09 11:39:31;;;;;;;9.90;1.77;;;;;;;13.08;100.00;100679.13;5249796;28;20553;-66
2022/11/09 11:42:20;;;;;;;7.85;1.70;;;;;;;13.09;100.00;100686.16;5250057;28;20036;-66
2022/11/09 11:45:03;;;;;;;7.88;1.55;;;;;;;13.17;100.00;100688.13;5250336;28;20629;-66
2022/11/09 11:47:56;;;;;;;7.30;1.65;;;;;;;13.16;100.00;100692.66;5251249;28;20135;-66
2022/11/09 11:50:31;;;;;;;8.23;1.65;;;;;;;13.11;100.00;100673.47;5251860;28;20059;-67